Time;durP1;ratioP1;P1;durP2;ratioP2;P2;SDS_P1;SDS_P2;PMS_P1;PMS_P2;Temp;Humidity;BMP_temperature;BMP_pressure;BME280_temperature;BME280_humidity;BME280_pressure;Samples;Min_cycle;Max_cycle;Signal;HPM_P1;HPM_P2
2022/06/12 00:01:57;;;;;;;0.20;0.20;;;;;;;17.49;69.57;99131.47;4770521;30;20526;-88
2022/06/12 00:04:25;;;;;;;0.20;0.20;;;;;;;17.47;69.06;99125.47;4769526;30;20146;-88
2022/06/12 00:06:53;;;;;;;0.20;0.20;;;;;;;17.46;68.96;99119.22;4768239;30;20165;-88
2022/06/12 00:09:20;;;;;;;0.20;0.20;;;;;;;17.49;69.43;99126.00;4753100;30;20055;-89
2022/06/12 00:11:47;;;;;;;0.20;0.20;;;;;;;17.48;69.76;99127.13;4767977;30;20079;-89
2022/06/12 00:14:15;;;;;;;0.20;0.20;;;;;;;17.43;69.54;99124.44;4769540;30;20052;-89
2022/06/12 00:16:43;;;;;;;0.20;0.20;;;;;;;17.46;69.36;99126.59;4771204;30;20047;-89
2022/06/12 00:19:12;;;;;;;0.20;0.20;;;;;;;17.42;68.68;99123.63;4771554;30;20058;-86
2022/06/12 00:21:39;;;;;;;0.20;0.20;;;;;;;17.43;68.78;99130.72;4773025;30;20136;-88
2022/06/12 00:24:10;;;;;;;0.20;0.20;;;;;;;17.43;68.70;99138.91;4774368;30;20051;-89
2022/06/12 00:26:44;;;;;;;0.20;0.20;;;;;;;17.45;68.73;99139.44;4788811;30;20522;-88
2022/06/12 00:29:25;;;;;;;0.20;0.20;;;;;;;17.46;68.26;99134.78;4785868;30;20091;-87
2022/06/12 00:32:05;;;;;;;0.20;0.20;;;;;;;17.47;68.32;99126.31;4779229;30;20131;-88
2022/06/12 00:34:46;;;;;;;0.20;0.20;;;;;;;17.52;68.74;99139.06;4774308;30;20064;-87
2022/06/12 00:37:14;;;;;;;0.30;0.30;;;;;;;17.50;69.69;99136.66;4774525;30;20147;-88
2022/06/12 00:39:42;;;;;;;0.20;0.20;;;;;;;17.53;69.57;99140.72;4756655;30;20557;-89
2022/06/12 00:42:31;;;;;;;0.20;0.20;;;;;;;17.47;70.17;99137.22;4772959;30;20170;-88
2022/06/12 00:45:00;;;;;;;0.20;0.20;;;;;;;17.41;70.11;99141.09;4774947;30;20080;-90
2022/06/12 00:47:29;;;;;;;0.20;0.20;;;;;;;17.39;70.68;99142.47;4774087;30;20520;-88
2022/06/12 00:50:05;;;;;;;0.20;0.20;;;;;;;17.33;71.96;99136.25;4773955;30;20474;-88
2022/06/12 00:52:37;;;;;;;0.20;0.20;;;;;;;17.25;73.64;99132.22;4774666;30;20067;-89
2022/06/12 00:55:33;;;;;;;0.20;0.20;;;;;;;17.21;74.42;99131.16;4776037;30;20066;-89
2022/06/12 00:58:08;;;;;;;0.20;0.20;;;;;;;17.16;74.58;99120.28;4797938;30;20089;-89
2022/06/12 01:00:37;;;;;;;0.20;0.20;;;;;;;17.11;75.15;99133.97;4788030;30;20066;-90
2022/06/12 01:03:05;;;;;;;0.20;0.20;;;;;;;16.92;75.81;99130.31;4771502;30;20056;-90
2022/06/12 01:08:20;;;;;;;0.20;0.20;;;;;;;16.75;76.67;99134.19;4771825;30;20516;-90
2022/06/12 01:10:51;;;;;;;0.20;0.20;;;;;;;16.81;77.37;99130.38;4770648;30;20142;-90
2022/06/12 01:13:25;;;;;;;0.20;0.20;;;;;;;16.80;76.33;99131.44;4770606;30;20083;-88
2022/06/12 01:15:57;;;;;;;0.20;0.20;;;;;;;16.86;76.42;99129.50;4771599;30;20055;-89
2022/06/12 01:18:34;;;;;;;0.20;0.20;;;;;;;16.81;76.57;99124.94;4772018;30;20116;-90
2022/06/12 01:21:26;;;;;;;0.20;0.20;;;;;;;16.87;76.31;99134.69;4771380;30;20444;-89
2022/06/12 01:23:59;;;;;;;0.20;0.20;;;;;;;16.86;75.99;99135.78;4756035;30;20059;-89
2022/06/12 01:26:44;;;;;;;0.20;0.20;;;;;;;16.88;75.24;99130.03;4771131;30;20071;-88
2022/06/12 01:29:30;;;;;;;0.20;0.20;;;;;;;16.87;75.62;99139.31;4770768;30;20059;-88
2022/06/12 01:32:14;;;;;;;0.20;0.20;;;;;;;16.90;76.18;99131.38;4785405;30;20062;-88
2022/06/12 01:34:52;;;;;;;0.30;0.30;;;;;;;16.93;75.99;99140.91;4770004;30;20606;-88
2022/06/12 01:37:46;;;;;;;0.20;0.20;;;;;;;16.97;76.27;99133.00;4770210;30;20485;-87
2022/06/12 01:40:27;;;;;;;0.20;0.20;;;;;;;17.01;75.62;99144.94;4770905;30;20098;-87
2022/06/12 01:43:15;;;;;;;0.20;0.20;;;;;;;17.01;74.55;99134.84;4769854;30;20091;-88
2022/06/12 01:45:45;;;;;;;0.20;0.20;;;;;;;16.98;74.37;99142.78;4770975;30;20056;-88
2022/06/12 01:48:22;;;;;;;0.20;0.20;;;;;;;17.02;74.29;99144.69;4754914;30;20089;-88
2022/06/12 01:51:14;;;;;;;0.20;0.20;;;;;;;17.02;75.17;99138.41;4770446;30;20060;-87
2022/06/12 01:53:55;;;;;;;0.20;0.20;;;;;;;16.85;75.87;99134.16;4769417;30;20060;-88
2022/06/12 01:56:42;;;;;;;0.20;0.20;;;;;;;16.73;76.03;99136.38;4769495;30;20060;-88
2022/06/12 01:59:43;;;;;;;0.20;0.20;;;;;;;16.60;76.33;99142.44;4769467;30;20059;-87
2022/06/12 02:02:30;;;;;;;0.20;0.20;;;;;;;16.53;76.04;99137.28;4769379;30;20059;-88
2022/06/12 02:05:05;;;;;;;0.20;0.20;;;;;;;16.56;76.57;99141.38;4769306;30;20134;-89
2022/06/12 02:07:38;;;;;;;0.20;0.20;;;;;;;16.58;76.13;99148.16;4754559;30;20500;-89
2022/06/12 02:10:17;;;;;;;0.30;0.30;;;;;;;16.59;75.87;99157.97;4769028;30;20105;-89
2022/06/12 02:13:35;;;;;;;0.20;0.20;;;;;;;16.53;76.46;99161.00;4769352;30;20055;-88
2022/06/12 02:16:10;;;;;;;0.20;0.20;;;;;;;16.45;76.33;99165.94;4772375;30;20496;-89
2022/06/12 02:18:42;;;;;;;0.20;0.20;;;;;;;16.42;76.71;99166.50;4769995;30;20120;-88
2022/06/12 02:21:41;;;;;;;0.20;0.20;;;;;;;16.50;77.61;99167.00;4769175;30;20059;-88
2022/06/12 02:24:19;;;;;;;0.20;0.20;;;;;;;16.53;77.74;99167.25;4754775;30;20056;-87
2022/06/12 02:26:58;;;;;;;0.20;0.20;;;;;;;16.53;77.08;99161.81;4754438;30;20067;-88
2022/06/12 02:29:38;;;;;;;0.30;0.30;;;;;;;16.58;77.13;99156.34;4770313;30;20147;-88
2022/06/12 02:32:22;;;;;;;0.20;0.20;;;;;;;16.70;76.98;99150.56;4769980;30;20066;-88
2022/06/12 02:34:57;;;;;;;0.30;0.30;;;;;;;16.73;77.69;99152.72;4770580;30;20055;-88
2022/06/12 02:37:27;;;;;;;0.30;0.30;;;;;;;16.77;77.84;99150.25;4769826;30;20058;-88
2022/06/12 02:40:02;;;;;;;0.20;0.20;;;;;;;16.81;77.57;99145.88;4769903;30;20052;-89
2022/06/12 02:42:37;;;;;;;0.20;0.20;;;;;;;16.77;78.93;99150.25;4768678;30;20112;-88
2022/06/12 02:45:09;;;;;;;0.30;0.30;;;;;;;16.88;79.64;99146.41;4740341;30;20603;-87
2022/06/12 02:47:38;;;;;;;0.20;0.20;;;;;;;16.95;79.18;99143.38;4753800;30;20064;-88
2022/06/12 02:50:06;;;;;;;0.30;0.30;;;;;;;16.99;79.41;99153.44;4768613;30;20564;-88
2022/06/12 02:52:55;;;;;;;0.20;0.20;;;;;;;17.01;79.47;99150.41;4769741;30;20064;-88
2022/06/12 02:55:44;;;;;;;0.20;0.20;;;;;;;16.88;78.97;99140.94;4768975;30;20056;-88
2022/06/12 02:58:16;;;;;;;0.20;0.20;;;;;;;16.86;78.69;99135.78;4769151;30;20052;-89
2022/06/12 03:00:46;;;;;;;0.20;0.20;;;;;;;16.87;78.04;99140.13;4776593;30;20078;-87
2022/06/12 03:03:40;;;;;;;0.20;0.20;;;;;;;16.90;78.44;99145.00;4786866;30;20055;-90
2022/06/12 03:06:07;;;;;;;0.28;0.28;;;;;;;17.01;79.06;99155.84;4776636;30;20093;-89
2022/06/12 03:08:40;;;;;;;0.20;0.20;;;;;;;17.12;79.16;99157.44;4788604;29;20032;-89
2022/06/12 03:11:15;;;;;;;0.20;0.20;;;;;;;17.17;77.91;99164.75;4754712;30;20060;-89
2022/06/12 03:13:44;;;;;;;0.20;0.20;;;;;;;17.16;77.57;99155.75;4769733;30;20055;-88
2022/06/12 03:16:22;;;;;;;0.30;0.30;;;;;;;17.19;78.45;99157.91;4770529;30;20055;-88
2022/06/12 03:18:54;;;;;;;0.20;0.20;;;;;;;17.18;78.51;99164.47;4769958;30;20067;-89
2022/06/12 03:21:28;;;;;;;0.20;0.20;;;;;;;17.20;78.81;99172.38;4754334;30;20116;-89
2022/06/12 03:23:56;;;;;;;;;;;;;;;17.20;78.54;99167.72;4770305;30;20067;-89
2022/06/12 03:26:36;;;;;;;0.20;0.20;;;;;;;17.25;78.45;99169.59;4769377;30;19937;-90
2022/06/12 03:29:09;;;;;;;0.30;0.30;;;;;;;17.25;78.46;99167.69;4768776;30;20047;-88
2022/06/12 03:32:11;;;;;;;0.20;0.20;;;;;;;17.31;78.37;99169.25;4769090;30;20519;-88
2022/06/12 03:34:55;;;;;;;0.30;0.30;;;;;;;17.33;77.31;99160.81;4774557;30;20081;-89
2022/06/12 03:37:22;;;;;;;0.30;0.30;;;;;;;17.33;76.18;99169.78;4776354;30;20105;-89
2022/06/12 03:40:19;;;;;;;0.30;0.30;;;;;;;17.41;75.75;99170.28;4771861;30;20412;-87
2022/06/12 03:42:53;;;;;;;0.28;0.28;;;;;;;17.42;75.42;99172.75;4768821;30;20151;-89
2022/06/12 03:45:23;;;;;;;;;;;;;;;17.44;75.06;99170.50;4773485;30;20066;-88
2022/06/12 03:47:55;;;;;;;0.20;0.20;;;;;;;17.42;74.82;99171.91;4782104;30;19933;-88
2022/06/12 03:50:31;;;;;;;0.20;0.20;;;;;;;17.43;75.20;99162.63;4782974;30;20056;-88
2022/06/12 03:53:03;;;;;;;0.20;0.20;;;;;;;17.48;75.16;99168.06;4784575;30;20093;-89
2022/06/12 03:58:58;;;;;;;0.20;0.20;;;;;;;17.47;74.47;99160.94;4779883;30;20079;-88
2022/06/12 04:01:26;;;;;;;0.20;0.20;;;;;;;17.52;74.14;99169.94;4756646;30;20101;-88
2022/06/12 04:03:55;;;;;;;0.20;0.20;;;;;;;17.52;74.21;99163.63;4778948;30;20123;-88
2022/06/12 04:06:25;;;;;;;0.20;0.20;;;;;;;17.58;73.49;99159.78;4780762;30;20484;-87
2022/06/12 04:08:57;;;;;;;0.30;0.30;;;;;;;17.61;73.01;99175.56;4777687;30;20110;-90
2022/06/12 04:11:25;;;;;;;0.30;0.30;;;;;;;17.63;73.25;99178.81;4764999;30;20598;-89
2022/06/12 04:13:53;;;;;;;0.25;0.25;;;;;;;17.68;73.05;99176.06;4765049;30;20051;-87
2022/06/12 04:16:38;;;;;;;0.20;0.20;;;;;;;17.72;72.71;99171.66;4778391;30;20481;-88
2022/06/12 04:19:06;;;;;;;;;;;;;;;17.72;72.95;99171.66;4754803;30;20058;-88
2022/06/12 04:21:36;;;;;;;0.20;0.20;;;;;;;17.76;73.20;99175.41;4783883;30;19933;-88
2022/06/12 04:24:11;;;;;;;0.30;0.30;;;;;;;17.82;73.08;99172.66;4779211;30;20062;-88
2022/06/12 04:26:54;;;;;;;0.30;0.30;;;;;;;17.85;73.20;99178.38;4772494;30;20051;-89
2022/06/12 04:29:29;;;;;;;0.20;0.20;;;;;;;17.89;73.22;99181.34;4771529;30;20060;-87
2022/06/12 04:31:59;;;;;;;0.30;0.30;;;;;;;17.89;73.52;99173.16;4772230;30;20083;-89
2022/06/12 04:34:31;;;;;;;0.30;0.30;;;;;;;17.91;74.05;99174.50;4772056;30;20055;-87
2022/06/12 04:37:08;;;;;;;0.20;0.20;;;;;;;17.87;74.87;99167.16;4772415;30;20090;-88
2022/06/12 04:39:36;;;;;;;0.20;0.20;;;;;;;17.89;74.93;99173.16;4762678;30;20136;-89
2022/06/12 04:42:06;;;;;;;0.30;0.30;;;;;;;17.82;74.94;99165.28;4783910;30;20051;-87
2022/06/12 04:44:33;;;;;;;0.22;0.22;;;;;;;17.89;74.88;99167.69;4772583;30;20056;-85
2022/06/12 04:47:01;;;;;;;;;;;;;;;17.87;74.72;99175.34;4428118;29;10000577;-86
2022/06/12 04:49:30;;;;;;;0.30;0.30;;;;;;;17.92;75.33;99170.66;4754996;30;19934;-86
2022/06/12 04:52:00;;;;;;;0.30;0.30;;;;;;;17.99;75.07;99173.03;4773208;30;20060;-89
2022/06/12 04:54:30;;;;;;;0.22;0.22;;;;;;;18.00;74.94;99171.94;4786083;30;20059;-88
2022/06/12 04:56:57;;;;;;;0.30;0.30;;;;;;;18.08;74.76;99170.47;4785107;30;20086;-88
2022/06/12 04:59:25;;;;;;;0.30;0.30;;;;;;;18.11;74.21;99175.38;4777701;30;20058;-89
2022/06/12 05:01:55;;;;;;;0.30;0.30;;;;;;;18.08;74.01;99170.47;4770677;30;20051;-89
2022/06/12 05:04:24;;;;;;;0.20;0.20;;;;;;;18.13;73.46;99186.84;4753181;30;20505;-88
2022/06/12 05:06:51;;;;;;;0.30;0.30;;;;;;;18.19;72.87;99185.66;4768811;30;20051;-86
2022/06/12 05:09:22;;;;;;;0.20;0.20;;;;;;;18.22;72.30;99189.75;4771372;30;20059;-87
2022/06/12 05:11:52;;;;;;;0.30;0.30;;;;;;;18.19;72.55;99185.66;4770535;30;20124;-85
2022/06/12 05:14:19;;;;;;;0.30;0.30;;;;;;;18.28;72.33;99188.56;4768007;30;20052;-84
2022/06/12 05:16:50;;;;;;;0.20;0.20;;;;;;;18.37;71.93;99189.56;4785297;30;20040;-83
2022/06/12 05:19:20;;;;;;;0.20;0.20;;;;;;;18.47;71.97;99192.16;4763190;30;20051;-91
2022/06/12 05:21:52;;;;;;;0.30;0.30;;;;;;;18.54;71.35;99189.09;4769449;30;20064;-89
2022/06/12 05:24:20;;;;;;;0.30;0.30;;;;;;;18.57;71.15;99197.50;4766842;30;20079;-88
2022/06/12 05:26:49;;;;;;;0.30;0.30;;;;;;;18.64;71.35;99188.97;4756648;30;20056;-83
2022/06/12 05:29:29;;;;;;;0.30;0.30;;;;;;;18.73;71.13;99189.09;4760519;30;20421;-88
2022/06/12 05:31:56;;;;;;;0.30;0.30;;;;;;;18.84;70.94;99196.91;4768331;30;20116;-86
2022/06/12 05:34:31;;;;;;;0.30;0.30;;;;;;;18.92;70.15;99197.38;4771217;30;20187;-91
2022/06/12 05:36:59;;;;;;;0.30;0.30;;;;;;;18.99;69.74;99197.78;4799988;30;20076;-89
2022/06/12 05:39:27;;;;;;;0.30;0.30;;;;;;;19.04;69.64;99184.88;4779074;30;20082;-89
2022/06/12 05:41:56;;;;;;;0.30;0.30;;;;;;;19.14;69.13;99199.50;4765320;30;20056;-88
2022/06/12 05:44:24;;;;;;;0.30;0.30;;;;;;;19.26;68.97;99194.41;4760760;30;20051;-86
2022/06/12 05:46:59;;;;;;;0.30;0.30;;;;;;;19.31;67.75;99193.50;4779281;30;20061;-90
2022/06/12 05:49:29;;;;;;;0.30;0.30;;;;;;;19.36;67.25;99207.13;4761022;30;20059;-90
2022/06/12 05:51:56;;;;;;;0.30;0.30;;;;;;;19.28;67.29;99201.19;4769961;30;20060;-90
2022/06/12 05:54:23;;;;;;;0.20;0.20;;;;;;;19.38;66.88;99202.16;4775349;30;20581;-93
2022/06/12 05:56:51;;;;;;;0.30;0.30;;;;;;;19.40;66.80;99211.69;4763533;30;20060;-89
2022/06/12 05:59:22;;;;;;;0.30;0.30;;;;;;;19.45;66.19;99205.34;4757055;30;20142;-87
2022/06/12 06:01:52;;;;;;;0.20;0.20;;;;;;;19.50;65.07;99197.03;4773897;30;20056;-87
2022/06/12 06:04:21;;;;;;;0.30;0.30;;;;;;;19.49;64.61;99198.13;4760173;30;20055;-86
2022/06/12 06:06:54;;;;;;;0.30;0.30;;;;;;;19.50;64.25;99197.03;4767398;30;20480;-85
2022/06/12 06:09:21;;;;;;;0.30;0.30;;;;;;;19.52;64.49;99181.09;4776739;24;20638;-87
2022/06/12 06:11:49;;;;;;;0.30;0.30;;;;;;;19.57;64.06;99189.25;4755395;30;20448;-84
2022/06/12 06:14:16;;;;;;;0.30;0.30;;;;;;;19.67;63.62;99207.44;4769373;30;20075;-87
2022/06/12 06:16:44;;;;;;;0.20;0.20;;;;;;;19.70;63.80;99190.44;4764852;30;20060;-85
2022/06/12 06:19:12;;;;;;;0.30;0.30;;;;;;;19.79;63.61;99199.56;4766793;30;20056;-87
2022/06/12 06:21:40;;;;;;;0.30;0.30;;;;;;;19.94;63.25;99205.91;4770878;30;20064;-90
2022/06/12 06:24:08;;;;;;;0.30;0.30;;;;;;;19.96;62.75;99196.28;4754388;30;20059;-88
2022/06/12 06:26:35;;;;;;;0.30;0.30;;;;;;;20.00;63.35;99199.22;4754566;30;20489;-88
2022/06/12 06:29:03;;;;;;;0.30;0.30;;;;;;;20.06;62.90;99196.09;4767999;30;20431;-87
2022/06/12 06:31:30;;;;;;;0.30;0.30;;;;;;;20.21;62.67;99197.72;4765157;30;20420;-87
2022/06/12 06:33:58;;;;;;;0.30;0.30;;;;;;;20.23;62.46;99183.69;4765350;30;20063;-89
2022/06/12 06:36:25;;;;;;;0.30;0.30;;;;;;;20.39;61.91;99190.53;4751650;30;20067;-85
2022/06/12 06:38:54;;;;;;;0.30;0.30;;;;;;;20.49;61.75;99178.53;4753529;30;20080;-86
2022/06/12 06:41:22;;;;;;;0.30;0.30;;;;;;;20.60;61.37;99181.91;4762435;30;20132;-85
2022/06/12 06:46:38;;;;;;;0.30;0.30;;;;;;;20.78;61.20;99176.28;4750587;30;20060;-83
2022/06/12 06:49:06;;;;;;;0.30;0.30;;;;;;;20.85;60.05;99162.16;4751385;30;20113;-86
2022/06/12 06:51:36;;;;;;;0.30;0.30;;;;;;;21.14;59.46;99167.25;4735551;30;20437;-83
2022/06/12 06:54:04;;;;;;;0.30;0.30;;;;;;;21.33;58.67;99166.25;4758635;30;20056;-85
2022/06/12 06:56:31;;;;;;;0.30;0.30;;;;;;;21.55;57.88;99166.28;4759707;30;20064;-85
2022/06/12 06:58:58;;;;;;;0.30;0.30;;;;;;;21.52;57.00;99155.94;4760956;30;20118;-86
2022/06/12 07:01:26;;;;;;;0.30;0.30;;;;;;;21.60;56.33;99163.41;4754148;30;20504;-85
2022/06/12 07:03:53;;;;;;;0.30;0.30;;;;;;;21.73;56.02;99166.41;4768595;30;20236;-83
2022/06/12 07:06:21;;;;;;;0.30;0.30;;;;;;;21.99;56.29;99164.59;4768837;30;20064;-84
2022/06/12 07:08:53;;;;;;;0.30;0.30;;;;;;;22.20;54.96;99164.84;4768960;30;20068;-83
2022/06/12 07:11:23;;;;;;;0.30;0.30;;;;;;;22.02;54.81;99163.94;4768697;30;20150;-83
2022/06/12 07:13:52;;;;;;;0.30;0.30;;;;;;;21.85;54.30;99172.09;4769141;30;20060;-84
2022/06/12 07:16:20;;;;;;;0.30;0.30;;;;;;;21.76;55.73;99163.03;4769235;30;20512;-84
2022/06/12 07:18:47;;;;;;;0.30;0.30;;;;;;;21.81;55.40;99160.94;4768853;30;20052;-83
2022/06/12 07:21:20;;;;;;;0.30;0.30;;;;;;;21.82;55.43;99159.00;4767924;30;20428;-84
2022/06/12 07:23:48;;;;;;;0.20;0.20;;;;;;;21.95;55.03;99157.28;4772921;30;20091;-84
2022/06/12 07:26:19;;;;;;;0.30;0.30;;;;;;;21.89;54.74;99161.31;4774400;30;20113;-84
2022/06/12 07:28:49;;;;;;;0.20;0.20;;;;;;;21.85;55.23;99158.38;4778067;30;20056;-84
2022/06/12 07:31:17;;;;;;;0.22;0.22;;;;;;;21.77;53.33;99157.19;4770049;30;20090;-84
2022/06/12 07:33:48;;;;;;;0.20;0.20;;;;;;;21.56;54.13;99161.59;4768993;30;20103;-83
2022/06/12 07:36:19;;;;;;;0.20;0.20;;;;;;;21.33;54.41;99150.59;4754081;30;20086;-84
2022/06/12 07:38:48;;;;;;;0.20;0.20;;;;;;;21.26;55.21;99152.16;4752746;30;20056;-85
2022/06/12 07:41:37;;;;;;;0.20;0.20;;;;;;;21.17;55.50;99155.66;4768761;30;20143;-84
2022/06/12 07:44:06;;;;;;;0.20;0.20;;;;;;;21.10;56.00;99152.53;4768312;30;20063;-84
2022/06/12 07:46:33;;;;;;;0.30;0.30;;;;;;;21.18;56.15;99159.19;4767338;30;20483;-82
2022/06/12 07:49:03;;;;;;;0.30;0.30;;;;;;;21.36;55.43;99157.41;4768579;30;20105;-84
2022/06/12 07:51:30;;;;;;;0.40;0.40;;;;;;;21.80;55.78;99155.75;4768240;30;20528;-83
2022/06/12 07:53:57;;;;;;;0.30;0.30;;;;;;;22.18;53.50;99158.84;4767348;30;20105;-84
2022/06/12 07:56:25;;;;;;;0.30;0.30;;;;;;;22.02;54.72;99152.94;4768811;30;20079;-84
2022/06/12 07:58:53;;;;;;;0.30;0.30;;;;;;;21.96;55.54;99156.16;4767326;30;20055;-84
2022/06/12 08:01:23;;;;;;;0.40;0.40;;;;;;;22.01;54.15;99145.03;4768696;30;20056;-84
2022/06/12 08:03:50;;;;;;;0.40;0.40;;;;;;;22.38;53.88;99140.16;4768617;30;20151;-83
2022/06/12 08:06:17;;;;;;;0.38;0.38;;;;;;;22.81;52.43;99136.69;4768359;30;20059;-83
2022/06/12 08:08:46;;;;;;;0.30;0.30;;;;;;;23.05;51.40;99155.53;4768201;30;20071;-84
2022/06/12 08:11:14;;;;;;;0.40;0.40;;;;;;;23.16;51.84;99134.78;4768631;30;20463;-83
2022/06/12 08:13:41;;;;;;;0.40;0.40;;;;;;;22.79;51.76;99150.78;4772331;30;20085;-84
2022/06/12 08:16:08;;;;;;;0.30;0.30;;;;;;;22.68;51.43;99142.00;4773097;30;20079;-83
2022/06/12 08:18:39;;;;;;;0.40;0.40;;;;;;;22.80;50.73;99144.13;4767212;30;20428;-84
2022/06/12 08:21:12;;;;;;;0.40;0.40;;;;;;;23.09;49.56;99156.47;4752627;30;20066;-84
2022/06/12 08:23:56;;;;;;;0.30;0.30;;;;;;;23.40;48.57;99145.28;4767679;30;20067;-83
2022/06/12 08:26:27;;;;;;;0.40;0.40;;;;;;;23.52;48.10;99145.44;4769034;30;20048;-84
2022/06/12 08:29:14;;;;;;;0.40;0.40;;;;;;;23.68;47.75;99133.91;4768544;30;20056;-83
2022/06/12 08:31:47;;;;;;;0.40;0.40;;;;;;;23.86;47.52;99146.50;4768115;30;20143;-83
2022/06/12 08:34:26;;;;;;;0.40;0.40;;;;;;;24.42;46.41;99135.38;4767197;30;20052;-83
2022/06/12 08:36:59;;;;;;;0.40;0.40;;;;;;;24.74;44.77;99133.91;4768115;30;20117;-84
2022/06/12 08:39:27;;;;;;;0.40;0.40;;;;;;;25.05;44.53;99130.75;4770338;30;20050;-83
2022/06/12 08:42:18;;;;;;;0.40;0.40;;;;;;;25.17;44.25;99124.50;4770078;30;20534;-83
2022/06/12 08:44:51;;;;;;;0.30;0.30;;;;;;;25.21;44.37;99121.88;4785392;30;20138;-84
2022/06/12 08:47:29;;;;;;;0.20;0.20;;;;;;;25.12;44.53;99115.56;4771705;30;20051;-84
2022/06/12 08:50:11;;;;;;;0.30;0.30;;;;;;;24.87;43.87;99124.56;4756259;30;20460;-83
2022/06/12 08:52:47;;;;;;;0.35;0.35;;;;;;;25.14;43.65;99127.09;4770262;30;20107;-83
2022/06/12 08:55:22;;;;;;;0.40;0.40;;;;;;;25.60;43.15;99123.28;4755635;30;20083;-83
2022/06/12 08:57:58;;;;;;;0.40;0.40;;;;;;;26.00;41.54;99113.56;4755202;30;20508;-83
2022/06/12 09:00:30;;;;;;;0.40;0.40;;;;;;;26.50;40.05;99113.19;4770104;30;20078;-83
2022/06/12 09:03:00;;;;;;;0.40;0.40;;;;;;;26.35;39.69;99113.91;4771617;30;20156;-85
2022/06/12 09:05:54;;;;;;;0.40;0.40;;;;;;;26.52;39.51;99115.63;4771237;30;20066;-83
2022/06/12 09:08:30;;;;;;;0.40;0.40;;;;;;;26.65;39.46;99110.91;4769892;30;20059;-83
2022/06/12 09:11:20;;;;;;;0.40;0.40;;;;;;;26.90;39.98;99106.91;4770945;30;20109;-83
2022/06/12 09:14:08;;;;;;;0.40;0.40;;;;;;;26.96;39.61;99088.06;4768629;30;20059;-85
2022/06/12 09:16:48;;;;;;;0.40;0.40;;;;;;;27.39;39.00;99094.84;4753621;30;20083;-84
2022/06/12 09:19:25;;;;;;;0.40;0.40;;;;;;;27.53;37.59;99100.75;4753628;30;20052;-83
2022/06/12 09:22:09;;;;;;;0.30;0.30;;;;;;;27.61;37.04;99097.00;4768331;30;20055;-83
2022/06/12 09:24:55;;;;;;;0.20;0.20;;;;;;;26.99;38.73;99109.50;4768275;30;20070;-83
2022/06/12 09:27:59;;;;;;;0.20;0.20;;;;;;;26.50;40.20;99102.13;4753884;30;20132;-84
2022/06/12 09:30:48;;;;;;;0.20;0.20;;;;;;;26.30;40.44;99095.56;4768065;30;20147;-83
2022/06/12 09:33:34;;;;;;;0.40;0.40;;;;;;;26.95;39.56;99100.31;4753611;30;20062;-83
2022/06/12 09:36:26;;;;;;;0.20;0.20;;;;;;;26.94;39.54;99095.91;4754342;30;20203;-83
2022/06/12 09:39:13;;;;;;;0.20;0.20;;;;;;;26.23;40.57;99089.00;4782060;30;20509;-83
2022/06/12 09:41:53;;;;;;;0.20;0.20;;;;;;;25.52;41.85;99086.28;4768161;30;20333;-84
2022/06/12 09:44:49;;;;;;;0.10;0.10;;;;;;;25.27;43.03;99085.41;4759009;30;20056;-82
2022/06/12 09:47:38;;;;;;;0.20;0.20;;;;;;;25.08;43.05;99085.88;4770972;30;20055;-83
2022/06/12 09:50:37;;;;;;;0.10;0.10;;;;;;;24.82;44.86;99088.88;4771209;30;20071;-83
2022/06/12 09:53:27;;;;;;;0.10;0.10;;;;;;;24.58;45.50;99097.00;4770194;30;20577;-84
2022/06/12 09:56:04;;;;;;;0.20;0.20;;;;;;;24.34;45.76;99084.66;4772260;30;20504;-83
2022/06/12 09:58:39;;;;;;;0.20;0.20;;;;;;;24.14;46.62;99086.22;4756987;30;20114;-83
2022/06/12 10:01:27;;;;;;;0.20;0.20;;;;;;;23.96;46.88;99085.50;4773818;30;20060;-84
2022/06/12 10:03:59;;;;;;;0.20;0.20;;;;;;;23.96;47.22;99085.50;4770193;30;20067;-84
2022/06/12 10:06:38;;;;;;;0.20;0.20;;;;;;;24.05;46.86;99087.41;4756861;30;20492;-85
2022/06/12 10:09:11;;;;;;;0.20;0.20;;;;;;;24.01;47.47;99082.56;4769831;30;20067;-85
2022/06/12 10:11:52;;;;;;;0.20;0.20;;;;;;;23.93;46.76;99074.34;4770126;30;20055;-85
2022/06/12 10:14:31;;;;;;;0.20;0.20;;;;;;;23.95;45.82;99083.06;4769010;30;20104;-85
2022/06/12 10:17:06;;;;;;;0.20;0.20;;;;;;;23.74;45.82;99070.03;4770169;30;20062;-83
2022/06/12 10:20:06;;;;;;;0.20;0.20;;;;;;;23.96;46.34;99081.94;4768649;30;20067;-84
2022/06/12 10:22:43;;;;;;;0.20;0.20;;;;;;;23.92;45.88;99062.50;4753427;30;20536;-85
2022/06/12 10:25:33;;;;;;;0.20;0.20;;;;;;;23.99;46.26;99078.53;4769634;30;20412;-85
2022/06/12 10:28:17;;;;;;;0.20;0.20;;;;;;;24.06;46.08;99073.31;4769710;30;20059;-85
2022/06/12 10:31:15;;;;;;;0.20;0.20;;;;;;;24.33;45.84;99072.03;4769133;30;20066;-84
2022/06/12 10:33:52;;;;;;;0.20;0.20;;;;;;;24.45;45.61;99076.81;4767949;30;20060;-84
2022/06/12 10:36:34;;;;;;;0.20;0.20;;;;;;;24.59;44.85;99071.06;4769571;30;20085;-85
2022/06/12 10:39:16;;;;;;;0.20;0.20;;;;;;;24.82;44.37;99068.75;4769644;30;20075;-84
2022/06/12 10:41:45;;;;;;;0.20;0.20;;;;;;;25.02;43.62;99059.66;4767946;30;20547;-84
2022/06/12 10:44:44;;;;;;;0.30;0.30;;;;;;;25.45;42.88;99061.19;4767877;30;20116;-84
2022/06/12 10:47:44;;;;;;;0.20;0.20;;;;;;;26.02;41.09;99062.28;4769496;30;20118;-84
2022/06/12 10:50:22;;;;;;;0.30;0.30;;;;;;;26.19;40.59;99058.47;4771033;30;20055;-86
2022/06/12 10:53:14;;;;;;;0.40;0.40;;;;;;;27.16;38.52;99058.56;4769018;30;20052;-84
2022/06/12 10:55:54;;;;;;;0.40;0.40;;;;;;;27.99;37.32;99056.00;4767998;30;20110;-84
2022/06/12 10:58:49;;;;;;;0.60;0.60;;;;;;;30.09;33.17;99047.47;4767754;30;20059;-84
2022/06/12 11:01:28;;;;;;;0.40;0.40;;;;;;;31.37;31.83;99041.16;4768880;30;20077;-84
2022/06/12 11:04:19;;;;;;;0.30;0.30;;;;;;;32.14;30.14;99045.03;4769347;30;20059;-85
2022/06/12 11:07:12;;;;;;;0.40;0.40;;;;;;;32.24;28.56;99038.72;4753360;30;20121;-84
2022/06/12 11:10:08;;;;;;;0.20;0.20;;;;;;;30.40;30.76;99040.00;4767047;30;20432;-85
2022/06/12 11:13:15;;;;;;;0.50;0.50;;;;;;;31.91;29.77;99031.31;4768705;30;20064;-84
2022/06/12 11:16:10;;;;;;;0.20;0.20;;;;;;;31.40;29.47;99029.25;4766914;30;20468;-85
2022/06/12 11:19:15;;;;;;;0.20;0.20;;;;;;;30.48;31.05;99024.97;4766883;30;20633;-85
2022/06/12 11:22:00;;;;;;;0.40;0.40;;;;;;;30.50;31.13;99022.63;4762277;30;20063;-85
2022/06/12 11:24:51;;;;;;;0.30;0.30;;;;;;;30.47;30.86;99014.25;4752766;30;20212;-84
2022/06/12 11:27:39;;;;;;;0.50;0.50;;;;;;;32.03;28.61;99017.06;4752000;30;20060;-85
2022/06/12 11:30:48;;;;;;;0.50;0.50;;;;;;;33.90;26.26;99018.47;4767395;30;20051;-84
2022/06/12 11:33:53;;;;;;;0.30;0.30;;;;;;;34.62;25.97;99010.75;4752036;30;20052;-85
2022/06/12 11:36:53;;;;;;;0.20;0.20;;;;;;;33.53;25.92;99008.47;4767564;30;20083;-85
2022/06/12 11:39:36;;;;;;;0.10;0.10;;;;;;;32.05;27.63;99003.50;4766523;30;20138;-86
2022/06/12 11:42:14;;;;;;;0.10;0.10;;;;;;;30.79;29.22;99006.25;4767148;30;20119;-86
2022/06/12 11:45:01;;;;;;;0.10;0.10;;;;;;;30.05;30.14;99002.09;4766923;30;20467;-84
2022/06/12 11:47:36;;;;;;;0.10;0.10;;;;;;;28.99;30.99;99002.63;4772150;30;20082;-85
2022/06/12 11:50:36;;;;;;;0.10;0.10;;;;;;;27.98;32.85;98999.72;4779228;30;20515;-85
2022/06/12 11:53:25;;;;;;;0.10;0.10;;;;;;;27.74;33.68;99003.47;4753166;30;20052;-85
2022/06/12 11:56:01;;;;;;;0.10;0.10;;;;;;;27.53;33.59;98998.22;4766969;30;20132;-86
2022/06/12 11:59:06;;;;;;;0.10;0.10;;;;;;;27.67;34.21;98987.50;4775483;30;20059;-83
2022/06/12 12:01:57;;;;;;;0.20;0.20;;;;;;;27.73;33.39;98987.22;4765484;30;20064;-85
2022/06/12 12:04:27;;;;;;;0.20;0.20;;;;;;;27.59;32.76;98990.44;4777015;30;20056;-85
2022/06/12 12:07:17;;;;;;;0.20;0.20;;;;;;;27.66;33.91;98982.28;4782174;30;20492;-87
2022/06/12 12:10:20;;;;;;;0.17;0.17;;;;;;;27.71;34.41;98984.00;4768166;30;20120;-85
2022/06/12 12:12:53;;;;;;;0.10;0.10;;;;;;;27.47;34.20;98979.44;4771157;30;20055;-83
2022/06/12 12:15:27;;;;;;;0.28;0.28;;;;;;;27.58;34.36;98978.56;4775100;29;20064;-85
2022/06/12 12:17:57;;;;;;;0.55;0.55;;;;;;;29.81;31.28;98964.41;4763835;30;20150;-85
2022/06/12 12:20:26;;;;;;;0.30;0.30;;;;;;;31.30;29.11;98959.06;4754698;30;20048;-85
2022/06/12 12:22:57;;;;;;;0.10;0.10;;;;;;;31.87;27.86;98955.91;4755109;30;20064;-84
2022/06/12 12:25:27;;;;;;;0.20;0.20;;;;;;;31.25;28.26;98950.25;4756210;30;20056;-84
2022/06/12 12:27:58;;;;;;;0.20;0.20;;;;;;;30.49;29.83;98957.00;4754328;30;20099;-84